createdAt,value
2017-09-27T00:00:24.361Z,1009.24
2017-09-27T00:01:04.897Z,1009.26
2017-09-27T00:01:45.454Z,1009.25
2017-09-27T00:02:25.965Z,1009.22
2017-09-27T00:03:06.504Z,1009.27
2017-09-27T00:03:47.164Z,1009.29
2017-09-27T00:04:27.686Z,1009.26
2017-09-27T00:05:08.225Z,1009.29
2017-09-27T00:05:48.776Z,1009.29
2017-09-27T00:06:29.308Z,1009.28
2017-09-27T00:07:09.867Z,1009.27
2017-09-27T00:07:50.414Z,1009.28
2017-09-27T00:08:30.974Z,1009.31
2017-09-27T00:09:11.504Z,1009.29
2017-09-27T00:09:52.059Z,1009.29
2017-09-27T00:10:32.597Z,1009.27
2017-09-27T00:11:13.165Z,1009.28
2017-09-27T00:11:53.679Z,1009.29
2017-09-27T00:12:34.213Z,1009.3
2017-09-27T00:13:14.741Z,1009.23
2017-09-27T00:13:55.269Z,1009.26
2017-09-27T00:14:35.776Z,1009.26
2017-09-27T00:15:16.379Z,1009.29
2017-09-27T00:15:56.866Z,1009.27
2017-09-27T00:16:37.420Z,1009.27
2017-09-27T00:17:17.951Z,1009.29
2017-09-27T00:17:58.491Z,1009.31
2017-09-27T00:18:39.029Z,1009.31
2017-09-27T00:19:19.557Z,1009.25
2017-09-27T00:20:00.094Z,1009.3
2017-09-27T00:20:40.647Z,1009.31
2017-09-27T00:21:21.191Z,1009.27
2017-09-27T00:22:01.743Z,1009.28
2017-09-27T00:22:42.322Z,1009.31
2017-09-27T00:23:22.875Z,1009.29
2017-09-27T00:24:03.422Z,1009.27
2017-09-27T00:24:43.979Z,1009.27
2017-09-27T00:25:24.507Z,1009.32
2017-09-27T00:26:05.038Z,1009.29
2017-09-27T00:26:45.546Z,1009.26
2017-09-27T00:27:26.121Z,1009.24
2017-09-27T00:28:06.627Z,1009.28
2017-09-27T00:28:47.142Z,1009.29
2017-09-27T00:29:27.728Z,1009.3
2017-09-27T00:30:08.250Z,1009.32
2017-09-27T00:30:48.789Z,1009.29
2017-09-27T00:31:29.304Z,1009.28
2017-09-27T00:32:09.917Z,1009.27
2017-09-27T00:32:50.468Z,1009.25
2017-09-27T00:33:31.005Z,1009.26
2017-09-27T00:34:11.479Z,1009.26
2017-09-27T00:34:52.061Z,1009.25
2017-09-27T00:35:32.580Z,1009.21
2017-09-27T00:36:13.126Z,1009.25
2017-09-27T00:36:53.664Z,1009.25
2017-09-27T00:37:34.211Z,1009.23
2017-09-27T00:38:14.772Z,1009.27
2017-09-27T00:38:55.419Z,1009.26
2017-09-27T00:39:35.980Z,1009.22
2017-09-27T00:40:16.529Z,1009.26
2017-09-27T00:40:57.041Z,1009.27
2017-09-27T00:41:37.537Z,1009.25
2017-09-27T00:42:18.115Z,1009.26
2017-09-27T00:42:58.632Z,1009.29
2017-09-27T00:43:39.216Z,1009.28
2017-09-27T00:44:19.726Z,1009.24
2017-09-27T00:45:00.285Z,1009.27
2017-09-27T00:45:40.757Z,1009.29
2017-09-27T00:46:21.316Z,1009.21
2017-09-27T00:47:01.875Z,1009.21
2017-09-27T00:47:42.381Z,1009.23
2017-09-27T00:48:22.940Z,1009.25
2017-09-27T00:49:03.514Z,1009.2
2017-09-27T00:49:44.069Z,1009.23
2017-09-27T00:50:24.558Z,1009.21
2017-09-27T00:51:05.102Z,1009.21
2017-09-27T00:51:45.643Z,1009.22
2017-09-27T00:52:26.161Z,1009.21
2017-09-27T00:53:06.698Z,1009.2
2017-09-27T00:53:47.225Z,1009.22
2017-09-27T00:54:27.771Z,1009.16
2017-09-27T00:55:08.333Z,1009.13
2017-09-27T00:55:48.872Z,1009.09
2017-09-27T00:56:29.440Z,1009.09
2017-09-27T00:57:09.930Z,1009.09
2017-09-27T00:57:50.493Z,1009.11
2017-09-27T00:58:30.994Z,1009.05
2017-09-27T00:59:11.529Z,1009.05
2017-09-27T00:59:52.101Z,1009.06
2017-09-27T01:00:32.627Z,1009.05
2017-09-27T01:01:13.161Z,1009.06
2017-09-27T01:01:53.771Z,1009.04
2017-09-27T01:02:34.289Z,1009.08
2017-09-27T01:03:14.878Z,1009.11
2017-09-27T01:03:55.351Z,1009.05
2017-09-27T01:04:35.902Z,1009.1
2017-09-27T01:05:16.407Z,1009.08
2017-09-27T01:05:56.989Z,1009.11
2017-09-27T01:06:37.537Z,1009.12
2017-09-27T01:07:18.042Z,1009.08
2017-09-27T01:07:58.623Z,1009.09
2017-09-27T01:08:39.235Z,1009.08
2017-09-27T01:09:19.776Z,1009.09
2017-09-27T01:10:00.316Z,1009.08
2017-09-27T01:10:40.858Z,1009.08
2017-09-27T01:11:21.340Z,1009.08
2017-09-27T01:12:01.880Z,1009.08
2017-09-27T01:12:42.427Z,1009.07
2017-09-27T01:13:22.975Z,1009.13
2017-09-27T01:14:03.463Z,1009.09
2017-09-27T01:14:44.000Z,1009.1
2017-09-27T01:15:24.561Z,1009.11
2017-09-27T01:16:05.133Z,1009.08
2017-09-27T01:16:45.674Z,1009.13
2017-09-27T01:17:26.238Z,1009.08
2017-09-27T01:18:06.775Z,1009.14
2017-09-27T01:18:47.282Z,1009.11
2017-09-27T01:19:27.791Z,1009.11
2017-09-27T01:20:08.379Z,1009.1
2017-09-27T01:20:48.874Z,1009.13
2017-09-27T01:21:29.463Z,1009.13
2017-09-27T01:22:10.011Z,1009.15
2017-09-27T01:22:50.546Z,1009.15
2017-09-27T01:23:31.092Z,1009.12
2017-09-27T01:24:11.637Z,1009.13
2017-09-27T01:24:52.182Z,1009.12
2017-09-27T01:25:32.697Z,1009.08
2017-09-27T01:26:13.265Z,1009.11
2017-09-27T01:26:53.850Z,1009.12
2017-09-27T01:27:34.349Z,1009.1
2017-09-27T01:28:14.916Z,1009.11
2017-09-27T01:28:55.401Z,1009.09
2017-09-27T01:29:35.933Z,1009.08
2017-09-27T01:30:16.503Z,1009.07
2017-09-27T01:30:57.019Z,1009.09
2017-09-27T01:31:37.593Z,1009.09
2017-09-27T01:32:18.130Z,1009.1
2017-09-27T01:32:58.694Z,1009.06
2017-09-27T01:33:39.223Z,1009.1
2017-09-27T01:34:19.786Z,1009.06
2017-09-27T01:35:00.325Z,1009.05
2017-09-27T01:35:40.878Z,1009.1
2017-09-27T01:36:21.417Z,1009.07
2017-09-27T01:37:01.943Z,1009.13
2017-09-27T01:37:42.525Z,1009.07
2017-09-27T01:38:23.102Z,1009.1
2017-09-27T01:39:03.620Z,1009.07
2017-09-27T01:39:44.190Z,1009.09
2017-09-27T01:40:24.701Z,1009.1
2017-09-27T01:41:05.271Z,1009.14
2017-09-27T01:41:45.849Z,1009.15
2017-09-27T01:42:26.322Z,1009.14
2017-09-27T01:43:06.843Z,1009.15
2017-09-27T01:43:47.384Z,1009.19
2017-09-27T01:44:27.929Z,1009.2
2017-09-27T01:45:08.455Z,1009.11
2017-09-27T01:45:48.967Z,1009.16
2017-09-27T01:46:29.530Z,1009.11
2017-09-27T01:47:10.030Z,1009.15
2017-09-27T01:47:50.663Z,1009.16
2017-09-27T01:48:31.166Z,1009.11
2017-09-27T01:49:11.711Z,1009.14
2017-09-27T01:49:52.227Z,1009.13
2017-09-27T01:50:32.792Z,1009.08
2017-09-27T01:51:13.285Z,1009.11
2017-09-27T01:51:53.810Z,1009.07
2017-09-27T01:52:34.326Z,1009.1
2017-09-27T01:53:14.893Z,1009.09
2017-09-27T01:53:55.387Z,1009.09
2017-09-27T01:54:35.929Z,1009.12
2017-09-27T01:55:16.428Z,1009.14
2017-09-27T01:55:56.941Z,1009.17
2017-09-27T01:56:37.460Z,1009.19
2017-09-27T01:57:18.010Z,1009.18
2017-09-27T01:57:58.561Z,1009.12
2017-09-27T01:58:39.046Z,1009.13
2017-09-27T01:59:19.638Z,1009.15
2017-09-27T02:00:00.159Z,1009.16
2017-09-27T02:00:40.676Z,1009.17
2017-09-27T02:01:21.253Z,1009.19
2017-09-27T02:02:01.791Z,1009.22
2017-09-27T02:02:42.302Z,1009.21
2017-09-27T02:03:22.856Z,1009.25
2017-09-27T02:04:03.340Z,1009.21
2017-09-27T02:04:43.905Z,1009.22
2017-09-27T02:05:24.443Z,1009.24
2017-09-27T02:06:04.970Z,1009.24
2017-09-27T02:06:45.524Z,1009.27
2017-09-27T02:07:26.026Z,1009.23
2017-09-27T02:08:06.591Z,1009.26
2017-09-27T02:08:47.167Z,1009.23
2017-09-27T02:09:27.694Z,1009.24
2017-09-27T02:10:08.176Z,1009.24
2017-09-27T02:10:48.752Z,1009.26
2017-09-27T02:11:29.226Z,1009.29
2017-09-27T02:12:09.768Z,1009.31
2017-09-27T02:12:50.307Z,1009.34
2017-09-27T02:13:30.823Z,1009.29
2017-09-27T02:14:11.345Z,1009.37
2017-09-27T02:14:51.862Z,1009.38
2017-09-27T02:15:32.379Z,1009.37
2017-09-27T02:16:12.921Z,1009.33
2017-09-27T02:16:53.474Z,1009.36
2017-09-27T02:17:34.085Z,1009.35
2017-09-27T02:18:14.587Z,1009.33
2017-09-27T02:18:55.128Z,1009.36
2017-09-27T02:19:35.634Z,1009.34
2017-09-27T02:20:16.193Z,1009.37
2017-09-27T02:20:56.675Z,1009.36
2017-09-27T02:21:37.259Z,1009.33
2017-09-27T02:22:17.769Z,1009.34
2017-09-27T02:22:58.320Z,1009.32
2017-09-27T02:23:38.852Z,1009.3
2017-09-27T02:24:19.421Z,1009.31
2017-09-27T02:24:59.972Z,1009.34
2017-09-27T02:25:40.461Z,1009.33
2017-09-27T02:26:21.018Z,1009.36
2017-09-27T02:27:01.569Z,1009.34
2017-09-27T02:27:42.128Z,1009.32
2017-09-27T02:28:22.706Z,1009.37
2017-09-27T02:29:03.252Z,1009.32
2017-09-27T02:29:43.716Z,1009.31
2017-09-27T02:30:24.268Z,1009.33
2017-09-27T02:31:04.823Z,1009.28
2017-09-27T02:31:45.318Z,1009.29
2017-09-27T02:32:25.819Z,1009.3
2017-09-27T02:33:06.389Z,1009.32
2017-09-27T02:33:46.889Z,1009.28
2017-09-27T02:34:27.379Z,1009.32
2017-09-27T02:35:07.915Z,1009.32
2017-09-27T02:35:48.472Z,1009.23
2017-09-27T02:36:29.003Z,1009.33
2017-09-27T02:37:09.512Z,1009.32
2017-09-27T02:37:50.057Z,1009.3
2017-09-27T02:40:02.813Z,1009.3
2017-09-27T02:40:43.359Z,1009.29
2017-09-27T02:41:23.898Z,1009.32
2017-09-27T02:42:04.449Z,1009.33
2017-09-27T02:42:44.971Z,1009.35
2017-09-27T02:43:25.513Z,1009.33
2017-09-27T02:44:06.052Z,1009.31
2017-09-27T02:44:46.590Z,1009.31
2017-09-27T02:45:27.146Z,1009.29
2017-09-27T02:46:07.688Z,1009.3
2017-09-27T02:46:48.225Z,1009.31
2017-09-27T02:47:28.758Z,1009.27
2017-09-27T02:48:09.322Z,1009.32
2017-09-27T02:48:49.864Z,1009.3
2017-09-27T02:49:30.422Z,1009.29
2017-09-27T02:50:10.976Z,1009.31
2017-09-27T02:50:51.629Z,1009.34
2017-09-27T02:51:32.137Z,1009.32
2017-09-27T02:52:12.592Z,1009.32
2017-09-27T02:52:53.147Z,1009.32
2017-09-27T02:53:33.667Z,1009.3
2017-09-27T02:54:14.201Z,1009.26
2017-09-27T02:54:54.752Z,1009.33
2017-09-27T02:55:35.307Z,1009.24
2017-09-27T02:56:15.797Z,1009.33
2017-09-27T02:56:56.372Z,1009.27
2017-09-27T02:57:36.894Z,1009.26
2017-09-27T02:58:17.463Z,1009.29
2017-09-27T02:58:58.052Z,1009.31
2017-09-27T02:59:38.559Z,1009.25
2017-09-27T03:00:19.127Z,1009.27
2017-09-27T03:00:59.704Z,1009.24
2017-09-27T03:01:40.251Z,1009.25
2017-09-27T03:02:20.773Z,1009.27
2017-09-27T03:03:01.265Z,1009.28
2017-09-27T03:03:41.801Z,1009.29
2017-09-27T03:04:22.326Z,1009.32
2017-09-27T03:05:02.856Z,1009.25
2017-09-27T03:05:43.343Z,1009.28
2017-09-27T03:06:23.913Z,1009.24
2017-09-27T03:07:04.465Z,1009.27
2017-09-27T03:07:45.035Z,1009.25
2017-09-27T03:08:25.605Z,1009.23
2017-09-27T03:09:06.113Z,1009.25
2017-09-27T03:09:46.656Z,1009.23
2017-09-27T03:10:27.197Z,1009.21
2017-09-27T03:11:07.739Z,1009.18
2017-09-27T03:11:48.338Z,1009.24
2017-09-27T03:12:28.859Z,1009.21
2017-09-27T03:13:09.392Z,1009.22
2017-09-27T03:13:50.176Z,1009.22
2017-09-27T03:14:30.727Z,1009.25
2017-09-27T03:15:11.275Z,1009.25
2017-09-27T03:15:51.861Z,1009.26
2017-09-27T03:16:32.411Z,1009.25
2017-09-27T03:17:12.976Z,1009.31
2017-09-27T03:17:53.532Z,1009.31
2017-09-27T03:18:34.587Z,1009.28
2017-09-27T03:19:15.127Z,1009.29
2017-09-27T03:19:55.642Z,1009.27
2017-09-27T03:20:36.185Z,1009.27
2017-09-27T03:21:16.671Z,1009.28
2017-09-27T03:21:57.236Z,1009.24
2017-09-27T03:22:37.842Z,1009.28
2017-09-27T03:23:18.380Z,1009.28
2017-09-27T03:23:58.953Z,1009.33
2017-09-27T03:24:39.495Z,1009.26
2017-09-27T03:25:20.047Z,1009.31
2017-09-27T03:26:00.590Z,1009.32
2017-09-27T03:26:41.122Z,1009.28
2017-09-27T03:27:21.703Z,1009.29
2017-09-27T03:28:02.226Z,1009.3
2017-09-27T03:28:42.760Z,1009.28
2017-09-27T03:29:23.348Z,1009.3
2017-09-27T03:30:03.888Z,1009.25
2017-09-27T03:30:44.463Z,1009.23
2017-09-27T03:31:24.972Z,1009.26
2017-09-27T03:33:53.002Z,1009.25
2017-09-27T03:34:33.519Z,1009.3
2017-09-27T03:35:14.046Z,1009.32
2017-09-27T03:35:54.616Z,1009.31
2017-09-27T03:36:35.162Z,1009.34
2017-09-27T03:37:15.684Z,1009.34
2017-09-27T03:37:56.243Z,1009.36
2017-09-27T03:38:36.785Z,1009.33
2017-09-27T03:39:17.342Z,1009.34
2017-09-27T03:39:57.879Z,1009.36
2017-09-27T03:40:38.440Z,1009.32
2017-09-27T03:41:19.155Z,1009.31
2017-09-27T03:41:59.656Z,1009.25
2017-09-27T03:42:40.230Z,1009.31
2017-09-27T03:43:20.742Z,1009.31
2017-09-27T03:44:01.268Z,1009.36
2017-09-27T03:44:41.850Z,1009.35
2017-09-27T03:45:22.299Z,1009.32
2017-09-27T03:46:02.868Z,1009.34
2017-09-27T03:46:43.357Z,1009.31
2017-09-27T03:47:23.932Z,1009.32
2017-09-27T03:48:04.487Z,1009.32
2017-09-27T03:48:45.046Z,1009.32
2017-09-27T03:49:25.546Z,1009.29
2017-09-27T03:50:06.098Z,1009.29
2017-09-27T03:50:46.667Z,1009.33
2017-09-27T03:51:27.171Z,1009.3
2017-09-27T03:52:07.702Z,1009.3
2017-09-27T03:52:48.252Z,1009.31
2017-09-27T03:53:28.768Z,1009.31
2017-09-27T03:54:09.300Z,1009.31
2017-09-27T03:54:49.812Z,1009.29
2017-09-27T03:55:30.350Z,1009.28
2017-09-27T03:56:10.920Z,1009.32
2017-09-27T03:56:51.460Z,1009.31
2017-09-27T03:57:32.073Z,1009.32
2017-09-27T03:58:12.465Z,1009.32
2017-09-27T03:58:52.998Z,1009.34
2017-09-27T03:59:33.523Z,1009.32
2017-09-27T04:00:14.017Z,1009.31
2017-09-27T04:00:54.546Z,1009.37
2017-09-27T04:01:35.147Z,1009.33
2017-09-27T04:02:15.687Z,1009.37
2017-09-27T04:02:56.198Z,1009.39
2017-09-27T04:03:36.749Z,1009.32
2017-09-27T04:04:17.298Z,1009.38
2017-09-27T04:04:57.852Z,1009.42
2017-09-27T04:05:38.414Z,1009.38
2017-09-27T04:06:18.959Z,1009.41
2017-09-27T04:06:59.480Z,1009.39
2017-09-27T04:07:40.023Z,1009.39
2017-09-27T04:08:20.576Z,1009.39
2017-09-27T04:09:01.136Z,1009.43
2017-09-27T04:09:41.640Z,1009.4
2017-09-27T04:10:22.157Z,1009.42
2017-09-27T04:11:02.711Z,1009.4
2017-09-27T04:11:43.257Z,1009.4
2017-09-27T04:12:23.789Z,1009.41
2017-09-27T04:13:04.369Z,1009.42
2017-09-27T04:13:44.905Z,1009.42
2017-09-27T04:14:25.451Z,1009.39
2017-09-27T04:15:05.976Z,1009.43
2017-09-27T04:15:46.455Z,1009.43
2017-09-27T04:16:27.035Z,1009.47
2017-09-27T04:17:07.550Z,1009.45
2017-09-27T04:17:48.120Z,1009.45
2017-09-27T04:18:28.647Z,1009.47
2017-09-27T04:19:09.211Z,1009.47
2017-09-27T04:19:49.717Z,1009.44
2017-09-27T04:20:30.206Z,1009.47
2017-09-27T04:21:10.804Z,1009.48
2017-09-27T04:21:51.341Z,1009.45
2017-09-27T04:22:31.865Z,1009.42
2017-09-27T04:23:12.370Z,1009.45
2017-09-27T04:23:52.947Z,1009.45
2017-09-27T04:24:33.439Z,1009.47
2017-09-27T04:28:34.208Z,1009.45
2017-09-27T04:29:14.779Z,1009.45
2017-09-27T04:29:55.341Z,1009.46
2017-09-27T04:30:35.863Z,1009.49
2017-09-27T04:31:16.374Z,1009.46
2017-09-27T04:31:56.886Z,1009.48
2017-09-27T04:32:37.384Z,1009.51
2017-09-27T04:33:17.940Z,1009.55
2017-09-27T04:33:58.481Z,1009.52
2017-09-27T04:34:39.045Z,1009.54
2017-09-27T04:35:19.591Z,1009.51
2017-09-27T04:36:00.184Z,1009.55
2017-09-27T04:36:40.672Z,1009.58
2017-09-27T04:37:21.170Z,1009.55
2017-09-27T04:38:01.768Z,1009.6
2017-09-27T04:38:42.298Z,1009.59
2017-09-27T04:39:22.833Z,1009.55
2017-09-27T04:40:03.344Z,1009.59
2017-09-27T04:40:43.873Z,1009.62
2017-09-27T04:41:24.440Z,1009.59
2017-09-27T04:42:04.915Z,1009.56
2017-09-27T04:42:45.460Z,1009.6
2017-09-27T04:43:25.992Z,1009.59
2017-09-27T04:44:06.536Z,1009.62
2017-09-27T04:44:47.051Z,1009.69
2017-09-27T04:45:27.690Z,1009.6
2017-09-27T04:46:08.146Z,1009.7
2017-09-27T04:46:48.676Z,1009.69
2017-09-27T04:47:29.260Z,1009.7
2017-09-27T04:48:09.809Z,1009.67
2017-09-27T04:48:50.320Z,1009.75
2017-09-27T04:49:30.877Z,1009.76
2017-09-27T04:50:11.397Z,1009.7
2017-09-27T04:50:51.936Z,1009.76
2017-09-27T04:51:32.455Z,1009.78
2017-09-27T04:52:13.063Z,1009.73
2017-09-27T04:52:53.601Z,1009.72
2017-09-27T04:53:34.222Z,1009.73
2017-09-27T04:54:14.759Z,1009.71
2017-09-27T04:54:55.297Z,1009.72
2017-09-27T04:55:35.908Z,1009.69
2017-09-27T04:56:16.457Z,1009.73
2017-09-27T04:56:56.985Z,1009.77
2017-09-27T04:57:37.536Z,1009.74
2017-09-27T04:58:18.121Z,1009.76
2017-09-27T04:58:58.728Z,1009.73
2017-09-27T04:59:39.217Z,1009.76
2017-09-27T05:00:19.752Z,1009.77
2017-09-27T05:01:00.338Z,1009.76
2017-09-27T05:01:40.854Z,1009.79
2017-09-27T05:02:21.376Z,1009.82
2017-09-27T05:03:01.961Z,1009.83
2017-09-27T05:03:42.494Z,1009.83
2017-09-27T05:04:23.013Z,1009.78
2017-09-27T05:05:03.551Z,1009.83
2017-09-27T05:05:44.129Z,1009.89
2017-09-27T05:06:24.656Z,1009.83
2017-09-27T05:07:05.163Z,1009.82
2017-09-27T05:07:45.714Z,1009.88
2017-09-27T05:08:26.256Z,1009.88
2017-09-27T05:09:06.847Z,1009.88
2017-09-27T05:09:47.378Z,1009.9
2017-09-27T05:10:27.988Z,1009.94
2017-09-27T05:11:08.550Z,1009.89
2017-09-27T05:11:49.102Z,1009.93
2017-09-27T05:12:29.656Z,1009.91
2017-09-27T05:13:10.213Z,1009.9
2017-09-27T05:13:50.754Z,1009.92
2017-09-27T05:14:31.320Z,1009.92
2017-09-27T05:15:11.857Z,1009.91
2017-09-27T05:15:52.365Z,1009.95
2017-09-27T05:16:32.911Z,1009.93
2017-09-27T05:17:13.494Z,1009.93
2017-09-27T05:17:53.996Z,1009.96
2017-09-27T05:18:34.523Z,1009.95
2017-09-27T05:19:15.056Z,1009.94
2017-09-27T05:19:55.597Z,1009.95
2017-09-27T05:20:36.165Z,1009.93
2017-09-27T05:21:16.655Z,1009.93
2017-09-27T05:21:57.238Z,1009.95
2017-09-27T05:22:37.772Z,1009.97
2017-09-27T05:23:18.278Z,1009.96
2017-09-27T05:23:58.846Z,1009.95
2017-09-27T05:24:39.321Z,1009.97
2017-09-27T05:25:19.911Z,1009.97
2017-09-27T05:26:00.463Z,1009.98
2017-09-27T05:26:41.019Z,1010.02
2017-09-27T05:27:21.554Z,1010.01
2017-09-27T05:28:02.118Z,1010
2017-09-27T05:28:42.677Z,1010
2017-09-27T05:29:23.231Z,1010.04
2017-09-27T05:30:03.836Z,1010.06
2017-09-27T05:30:44.324Z,1010.05
2017-09-27T05:31:24.869Z,1010.09
2017-09-27T05:32:05.399Z,1010.14
2017-09-27T05:32:45.904Z,1010.08
2017-09-27T05:33:26.477Z,1010.12
2017-09-27T05:34:07.030Z,1010.1
2017-09-27T05:34:47.507Z,1010.03
2017-09-27T05:35:28.057Z,1010
2017-09-27T05:36:08.621Z,1010.02
2017-09-27T05:36:49.203Z,1010.03
2017-09-27T05:37:29.742Z,1009.98
2017-09-27T05:38:10.273Z,1010.01
2017-09-27T05:38:50.816Z,1009.99
2017-09-27T05:39:31.321Z,1010
2017-09-27T05:40:11.845Z,1009.99
2017-09-27T05:40:52.353Z,1009.99
2017-09-27T05:41:33.116Z,1010
2017-09-27T05:42:13.657Z,1009.99
2017-09-27T05:42:54.224Z,1009.97
2017-09-27T05:43:34.779Z,1009.99
2017-09-27T05:44:15.316Z,1009.97
2017-09-27T05:44:55.861Z,1009.99
2017-09-27T05:45:36.409Z,1010
2017-09-27T05:46:16.960Z,1009.96
2017-09-27T05:46:57.519Z,1009.97
2017-09-27T05:47:38.067Z,1009.97
2017-09-27T05:48:18.549Z,1009.98
2017-09-27T05:48:59.098Z,1009.96
2017-09-27T05:49:39.704Z,1009.98
2017-09-27T05:50:20.206Z,1010.02
2017-09-27T05:51:00.708Z,1010.03
2017-09-27T05:51:41.309Z,1010.03
2017-09-27T05:52:21.820Z,1010.03
2017-09-27T05:53:02.339Z,1010.07
2017-09-27T05:53:42.909Z,1010.06
2017-09-27T05:54:23.440Z,1010.04
2017-09-27T05:55:03.980Z,1010.04
2017-09-27T05:55:44.500Z,1010.09
2017-09-27T05:56:25.018Z,1010.02
2017-09-27T05:57:05.538Z,1010.04
2017-09-27T05:57:46.073Z,1010.1
2017-09-27T05:58:26.596Z,1010.03
2017-09-27T05:59:07.103Z,1010.05
2017-09-27T05:59:47.730Z,1010.07
2017-09-27T06:00:28.227Z,1010.06
2017-09-27T06:01:08.720Z,1010.12
2017-09-27T06:01:49.267Z,1010.06
2017-09-27T06:02:29.818Z,1010.07
2017-09-27T06:03:10.369Z,1010.08
2017-09-27T06:03:50.992Z,1010.08
2017-09-27T06:04:31.457Z,1010.07
2017-09-27T06:05:12.088Z,1010.13
2017-09-27T06:05:52.609Z,1010.12
2017-09-27T06:06:33.776Z,1010.11
2017-09-27T06:07:14.343Z,1010.06
2017-09-27T06:07:54.919Z,1010.11
2017-09-27T06:08:35.442Z,1010.1
2017-09-27T06:09:16.019Z,1010.11
2017-09-27T06:09:56.505Z,1010.15
2017-09-27T06:10:37.080Z,1010.13
2017-09-27T06:11:17.525Z,1010.15
2017-09-27T06:11:58.098Z,1010.11
2017-09-27T06:12:38.730Z,1010.16
2017-09-27T06:13:19.258Z,1010.13
2017-09-27T06:13:59.779Z,1010.13
2017-09-27T06:14:40.311Z,1010.16
2017-09-27T06:15:20.920Z,1010.15
2017-09-27T06:16:01.447Z,1010.14
2017-09-27T06:16:41.973Z,1010.13
2017-09-27T06:17:22.479Z,1010.15
2017-09-27T06:18:03.056Z,1010.17
2017-09-27T06:18:43.642Z,1010.14
2017-09-27T06:19:24.109Z,1010.14
2017-09-27T06:20:04.696Z,1010.11
2017-09-27T06:20:45.452Z,1010.17
2017-09-27T06:21:26.003Z,1010.15
2017-09-27T06:22:06.511Z,1010.18
2017-09-27T06:22:47.040Z,1010.18
2017-09-27T06:23:27.543Z,1010.17
2017-09-27T06:24:08.095Z,1010.2
2017-09-27T06:24:48.610Z,1010.19
2017-09-27T06:25:29.140Z,1010.23
2017-09-27T06:26:09.699Z,1010.24
2017-09-27T06:26:50.247Z,1010.21
2017-09-27T06:27:30.757Z,1010.24
2017-09-27T06:28:11.979Z,1010.23
2017-09-27T06:28:52.524Z,1010.21
2017-09-27T06:29:33.126Z,1010.22
2017-09-27T06:30:14.856Z,1010.23
2017-09-27T06:30:55.395Z,1010.21
2017-09-27T06:31:35.894Z,1010.24
2017-09-27T06:32:17.333Z,1010.24
2017-09-27T06:32:57.847Z,1010.2
2017-09-27T06:33:38.398Z,1010.23
2017-09-27T06:34:18.952Z,1010.22
2017-09-27T06:34:59.487Z,1010.24
2017-09-27T06:35:40.000Z,1010.28
2017-09-27T06:36:20.551Z,1010.29
2017-09-27T06:37:01.091Z,1010.27
2017-09-27T06:37:41.645Z,1010.26
2017-09-27T06:38:22.162Z,1010.3
2017-09-27T06:39:03.369Z,1010.25
2017-09-27T06:39:43.883Z,1010.24
2017-09-27T06:40:24.423Z,1010.25
2017-09-27T06:41:04.971Z,1010.22
2017-09-27T06:41:45.513Z,1010.27
2017-09-27T06:42:26.090Z,1010.23
2017-09-27T06:43:06.572Z,1010.26
2017-09-27T06:43:47.673Z,1010.19
2017-09-27T06:44:29.202Z,1010.25
2017-09-27T06:45:09.677Z,1010.23
2017-09-27T06:45:50.250Z,1010.28
2017-09-27T06:46:30.765Z,1010.29
2017-09-27T06:47:11.379Z,1010.28
2017-09-27T06:47:51.891Z,1010.3
2017-09-27T06:48:32.402Z,1010.29
2017-09-27T06:49:13.066Z,1010.35
2017-09-27T06:49:53.657Z,1010.32
2017-09-27T06:50:34.191Z,1010.31
2017-09-27T06:51:14.802Z,1010.33
2017-09-27T06:51:55.297Z,1010.35
2017-09-27T06:52:35.840Z,1010.34
2017-09-27T06:53:16.373Z,1010.3
2017-09-27T06:53:56.849Z,1010.34
2017-09-27T06:54:38.463Z,1010.37
2017-09-27T06:55:18.785Z,1010.33
2017-09-27T06:55:59.326Z,1010.39
2017-09-27T06:56:39.926Z,1010.39
2017-09-27T06:57:20.433Z,1010.37
2017-09-27T06:58:01.020Z,1010.41
2017-09-27T06:58:41.604Z,1010.38
2017-09-27T06:59:22.174Z,1010.4
2017-09-27T07:00:02.738Z,1010.38
2017-09-27T07:00:43.311Z,1010.43
2017-09-27T07:01:23.859Z,1010.42
2017-09-27T07:02:04.358Z,1010.45
2017-09-27T07:02:46.206Z,1010.47
2017-09-27T07:03:26.757Z,1010.43
2017-09-27T07:04:07.236Z,1010.44
2017-09-27T07:06:20.593Z,1010.41
2017-09-27T07:07:01.120Z,1010.39
2017-09-27T07:07:41.890Z,1010.44
2017-09-27T07:08:22.426Z,1010.43
2017-09-27T07:09:02.984Z,1010.43
2017-09-27T07:09:43.560Z,1010.42
2017-09-27T07:10:24.066Z,1010.44
2017-09-27T07:11:04.646Z,1010.4
2017-09-27T07:11:45.158Z,1010.43
2017-09-27T07:12:25.701Z,1010.46
2017-09-27T07:13:06.273Z,1010.45
2017-09-27T07:13:46.863Z,1010.47
2017-09-27T07:14:27.362Z,1010.46
2017-09-27T07:15:07.874Z,1010.48
2017-09-27T07:15:48.384Z,1010.45
2017-09-27T07:16:28.973Z,1010.47
2017-09-27T07:17:09.475Z,1010.45
2017-09-27T07:17:52.445Z,1010.45
2017-09-27T07:18:32.156Z,1010.46
2017-09-27T07:19:12.701Z,1010.49
2017-09-27T07:19:53.228Z,1010.45
2017-09-27T07:20:33.785Z,1010.47
2017-09-27T07:21:14.545Z,1010.43
2017-09-27T07:21:55.071Z,1010.45
2017-09-27T07:22:35.566Z,1010.47
2017-09-27T07:23:16.109Z,1010.49
2017-09-27T07:23:56.730Z,1010.47
2017-09-27T07:24:37.212Z,1010.47
2017-09-27T07:25:17.832Z,1010.48
2017-09-27T07:25:58.621Z,1010.46
2017-09-27T07:26:40.101Z,1010.46
2017-09-27T07:27:20.910Z,1010.49
2017-09-27T07:28:01.694Z,1010.5
2017-09-27T07:28:42.248Z,1010.49
2017-09-27T07:29:22.739Z,1010.54
2017-09-27T07:30:03.291Z,1010.51
2017-09-27T07:30:43.816Z,1010.5
2017-09-27T07:31:24.367Z,1010.52
2017-09-27T07:32:04.903Z,1010.55
2017-09-27T07:32:45.477Z,1010.55
2017-09-27T07:33:26.021Z,1010.56
2017-09-27T07:34:06.539Z,1010.54
2017-09-27T07:34:47.206Z,1010.54
2017-09-27T07:35:27.758Z,1010.53
2017-09-27T07:36:08.309Z,1010.5
2017-09-27T07:36:48.819Z,1010.57
2017-09-27T07:37:29.385Z,1010.57
2017-09-27T07:38:09.964Z,1010.55
2017-09-27T07:38:50.468Z,1010.56
2017-09-27T07:39:31.011Z,1010.55
2017-09-27T07:40:11.576Z,1010.58
2017-09-27T07:40:52.183Z,1010.56
2017-09-27T07:41:32.718Z,1010.58
2017-09-27T07:42:13.267Z,1010.52
2017-09-27T07:42:53.765Z,1010.55
2017-09-27T07:43:34.333Z,1010.57
2017-09-27T07:44:14.915Z,1010.57
2017-09-27T07:44:55.449Z,1010.59
2017-09-27T07:45:35.939Z,1010.59
2017-09-27T07:46:16.495Z,1010.58
2017-09-27T07:46:57.463Z,1010.55
2017-09-27T07:47:37.876Z,1010.6
2017-09-27T07:48:18.523Z,1010.57
2017-09-27T07:48:59.219Z,1010.6
2017-09-27T07:49:40.184Z,1010.57
2017-09-27T07:50:27.558Z,1010.6
2017-09-27T07:51:08.128Z,1010.6
2017-09-27T07:51:48.647Z,1010.61
2017-09-27T07:52:29.319Z,1010.58
2017-09-27T07:53:09.744Z,1010.6
2017-09-27T07:53:50.344Z,1010.63
2017-09-27T07:54:30.865Z,1010.6
2017-09-27T07:55:11.376Z,1010.57
2017-09-27T07:55:51.961Z,1010.64
2017-09-27T07:56:32.509Z,1010.59
2017-09-27T07:57:13.144Z,1010.6
2017-09-27T07:57:53.629Z,1010.61
2017-09-27T07:58:34.342Z,1010.59
2017-09-27T07:59:14.823Z,1010.61
2017-09-27T07:59:55.366Z,1010.58
2017-09-27T08:00:35.890Z,1010.62
2017-09-27T08:01:16.463Z,1010.57
2017-09-27T08:01:57.063Z,1010.56
2017-09-27T08:02:37.544Z,1010.57
2017-09-27T08:03:18.087Z,1010.55
2017-09-27T08:03:58.801Z,1010.54
2017-09-27T08:04:39.354Z,1010.55
2017-09-27T08:05:19.857Z,1010.57
2017-09-27T08:06:00.454Z,1010.6
2017-09-27T08:06:40.985Z,1010.57
2017-09-27T08:07:21.501Z,1010.6
2017-09-27T08:08:02.287Z,1010.61
2017-09-27T08:08:42.815Z,1010.61
2017-09-27T08:09:23.367Z,1010.65
2017-09-27T08:10:03.836Z,1010.64
2017-09-27T08:10:44.403Z,1010.64
2017-09-27T08:11:24.934Z,1010.67
2017-09-27T08:12:05.478Z,1010.69
2017-09-27T08:12:45.993Z,1010.66
2017-09-27T08:13:26.549Z,1010.62
2017-09-27T08:14:07.052Z,1010.63
2017-09-27T08:14:47.572Z,1010.66
2017-09-27T08:15:28.118Z,1010.66
2017-09-27T08:16:08.612Z,1010.64
2017-09-27T08:16:49.133Z,1010.67
2017-09-27T08:17:29.676Z,1010.64
2017-09-27T08:18:10.224Z,1010.67
2017-09-27T08:18:50.793Z,1010.65
2017-09-27T08:19:31.312Z,1010.69
2017-09-27T08:20:11.844Z,1010.71
2017-09-27T08:20:52.373Z,1010.7